createdAt,value
2024-02-12T00:01:06.826Z,0.73
2024-02-12T00:03:09.642Z,0.80
2024-02-12T00:05:12.630Z,0.75
2024-02-12T00:07:17.978Z,0.70
2024-02-12T00:09:22.048Z,0.70
2024-02-12T00:11:25.413Z,0.70
2024-02-12T00:13:28.451Z,0.70
2024-02-12T00:15:30.342Z,0.57
2024-02-12T00:17:33.196Z,0.70
2024-02-12T00:19:36.594Z,0.70
2024-02-12T00:21:38.480Z,0.60
2024-02-12T00:23:41.739Z,0.60
2024-02-12T00:25:47.210Z,0.60
2024-02-12T00:27:50.010Z,0.90
2024-02-12T00:29:55.328Z,0.55
2024-02-12T00:31:59.257Z,0.57
2024-02-12T00:34:02.611Z,0.60
2024-02-12T00:36:06.062Z,0.50
2024-02-12T00:38:09.157Z,0.55
2024-02-12T00:40:11.330Z,0.80
2024-02-12T00:42:15.708Z,0.50
2024-02-12T00:44:17.653Z,0.70
2024-02-12T00:46:20.551Z,0.60
2024-02-12T00:48:23.816Z,0.80
2024-02-12T00:50:26.748Z,0.50
2024-02-12T00:52:29.707Z,0.63
2024-02-12T00:54:33.578Z,0.60
2024-02-12T00:56:38.470Z,0.75
2024-02-12T00:58:43.857Z,0.50
2024-02-12T01:00:46.685Z,0.55
2024-02-12T01:02:49.647Z,0.50
2024-02-12T01:04:53.637Z,0.50
2024-02-12T01:07:00.866Z,0.60
2024-02-12T01:09:06.359Z,0.70
2024-02-12T01:11:09.355Z,0.73
2024-02-12T01:13:12.287Z,0.57
2024-02-12T01:15:16.754Z,0.75
2024-02-12T01:17:19.584Z,0.70
2024-02-12T01:19:22.432Z,0.70
2024-02-12T01:21:25.171Z,0.70
2024-02-12T01:23:31.550Z,1.13
2024-02-12T01:25:34.640Z,0.65
2024-02-12T01:27:37.578Z,0.55
2024-02-12T01:29:41.522Z,0.98
2024-02-12T01:31:45.695Z,0.80
2024-02-12T01:33:48.118Z,0.70
2024-02-12T01:35:51.498Z,0.60
2024-02-12T01:37:54.332Z,0.70
2024-02-12T01:39:57.236Z,0.80
2024-02-12T01:41:59.093Z,0.70
2024-02-12T01:44:01.805Z,0.60
2024-02-12T01:46:06.873Z,0.82
2024-02-12T01:48:12.015Z,0.57
2024-02-12T01:50:16.714Z,0.60
2024-02-12T01:52:20.697Z,0.57
2024-02-12T01:54:23.427Z,0.52
2024-02-12T01:56:27.067Z,0.70
2024-02-12T01:58:31.287Z,0.70
2024-02-12T02:00:34.119Z,0.60
2024-02-12T02:02:37.762Z,0.82
2024-02-12T02:04:41.936Z,0.52
2024-02-12T02:06:53.957Z,0.57
2024-02-12T02:08:57.652Z,0.80
2024-02-12T02:11:00.380Z,0.82
2024-02-12T02:13:03.197Z,0.55
2024-02-12T02:15:06.865Z,0.57
2024-02-12T02:17:09.710Z,0.52
2024-02-12T02:19:12.470Z,0.82
2024-02-12T02:21:15.669Z,0.60
2024-02-12T02:23:18.610Z,0.47
2024-02-12T02:25:22.038Z,0.57
2024-02-12T02:27:24.795Z,0.50
2024-02-12T02:29:27.717Z,0.50
2024-02-12T02:31:33.055Z,0.57
2024-02-12T02:33:37.165Z,0.57
2024-02-12T02:35:39.951Z,0.50
2024-02-12T02:37:43.765Z,0.55
2024-02-12T02:39:46.751Z,0.60
2024-02-12T02:41:51.016Z,0.50
2024-02-12T02:43:53.787Z,0.50
2024-02-12T02:45:56.942Z,0.50
2024-02-12T02:47:59.924Z,0.40
2024-02-12T02:50:02.841Z,0.77
2024-02-12T02:52:06.226Z,0.50
2024-02-12T02:54:10.009Z,0.80
2024-02-12T02:56:15.005Z,0.70
2024-02-12T02:58:19.170Z,0.80
2024-02-12T03:00:22.115Z,0.70
2024-02-12T03:02:24.998Z,0.70
2024-02-12T03:04:28.558Z,0.50
2024-02-12T03:06:31.537Z,0.73
2024-02-12T03:08:35.568Z,0.63
2024-02-12T03:10:38.384Z,0.70
2024-02-12T03:12:40.294Z,0.47
2024-02-12T03:14:45.299Z,0.50
2024-02-12T03:16:48.669Z,0.57
2024-02-12T03:18:50.847Z,0.55
2024-02-12T03:20:53.792Z,0.60
2024-02-12T03:22:56.918Z,0.47
2024-02-12T03:25:01.966Z,0.80
2024-02-12T03:27:04.504Z,0.55
2024-02-12T03:29:07.250Z,0.70
2024-02-12T03:31:11.379Z,0.70
2024-02-12T03:33:14.187Z,0.60
2024-02-12T03:35:17.128Z,0.73
2024-02-12T03:37:20.380Z,1.08
2024-02-12T03:39:25.446Z,0.70
2024-02-12T03:41:28.232Z,0.50
2024-02-12T03:43:30.941Z,0.60
2024-02-12T03:45:35.330Z,0.73
2024-02-12T03:47:42.478Z,0.57
2024-02-12T03:50:03.119Z,0.30
2024-02-12T03:52:23.628Z,0.60
2024-02-12T03:54:40.308Z,0.57
2024-02-12T03:57:00.904Z,0.50
2024-02-12T03:59:33.063Z,0.63
2024-02-12T04:01:36.949Z,0.40
2024-02-12T04:03:41.089Z,0.70
2024-02-12T04:05:43.887Z,0.60
2024-02-12T04:07:46.722Z,0.57
2024-02-12T04:09:49.481Z,0.57
2024-02-12T04:11:52.332Z,0.60
2024-02-12T04:13:55.903Z,0.60
2024-02-12T04:15:57.878Z,0.60
2024-02-12T04:18:00.674Z,0.60
2024-02-12T04:20:06.996Z,0.70
2024-02-12T04:22:12.112Z,0.40
2024-02-12T04:24:14.977Z,0.70
2024-02-12T04:26:18.765Z,0.50
2024-02-12T04:28:22.559Z,0.80
2024-02-12T04:30:26.736Z,0.50
2024-02-12T04:32:29.710Z,0.60
2024-02-12T04:34:31.638Z,0.50
2024-02-12T04:36:40.315Z,0.60
2024-02-12T04:38:43.246Z,0.63
2024-02-12T04:40:46.231Z,0.70
2024-02-12T04:42:49.284Z,0.68
2024-02-12T04:44:52.110Z,0.85
2024-02-12T04:46:54.988Z,0.68
2024-02-12T04:48:59.528Z,0.80
2024-02-12T04:51:02.720Z,0.50
2024-02-12T04:53:08.605Z,0.68
2024-02-12T04:55:12.175Z,0.85
2024-02-12T04:57:15.710Z,0.95
2024-02-12T04:59:19.607Z,0.85
2024-02-12T05:01:21.638Z,0.82
2024-02-12T05:03:24.766Z,0.75
2024-02-12T05:05:28.714Z,0.90
2024-02-12T05:07:32.350Z,0.88
2024-02-12T05:09:36.459Z,0.80
2024-02-12T05:11:39.310Z,0.77
2024-02-12T05:13:42.052Z,0.80
2024-02-12T05:15:44.970Z,0.90
2024-02-12T05:18:07.798Z,1.00
2024-02-12T05:20:29.796Z,0.90
2024-02-12T05:22:34.405Z,1.00
2024-02-12T05:24:38.476Z,0.90
2024-02-12T05:26:42.250Z,0.90
2024-02-12T05:28:44.969Z,0.60
2024-02-12T05:30:47.746Z,1.10
2024-02-12T05:32:50.739Z,1.27
2024-02-12T05:34:56.684Z,1.05
2024-02-12T05:36:59.672Z,1.40
2024-02-12T05:39:03.624Z,1.08
2024-02-12T05:41:06.733Z,1.20
2024-02-12T05:43:09.433Z,1.30
2024-02-12T05:45:12.413Z,1.00
2024-02-12T05:47:15.121Z,1.40
2024-02-12T05:49:24.278Z,1.00
2024-02-12T05:51:27.315Z,1.38
2024-02-12T05:53:30.628Z,1.38
2024-02-12T05:55:34.479Z,1.35
2024-02-12T05:57:38.740Z,1.40
2024-02-12T05:59:41.622Z,1.00
2024-02-12T06:01:44.688Z,1.65
2024-02-12T06:03:48.288Z,1.45
2024-02-12T06:05:52.356Z,1.70
2024-02-12T06:07:55.544Z,1.08
2024-02-12T06:09:58.434Z,1.00
2024-02-12T06:12:01.187Z,1.40
2024-02-12T06:14:05.293Z,1.33
2024-02-12T06:16:08.476Z,1.20
2024-02-12T06:18:11.355Z,1.10
2024-02-12T06:20:14.293Z,1.60
2024-02-12T06:22:17.214Z,1.17
2024-02-12T06:24:19.888Z,1.23
2024-02-12T06:26:23.067Z,1.58
2024-02-12T06:28:26.006Z,1.80
2024-02-12T06:30:30.100Z,1.40
2024-02-12T06:32:33.304Z,1.80
2024-02-12T06:34:36.223Z,1.30
2024-02-12T06:36:38.922Z,1.80
2024-02-12T06:38:41.810Z,1.20
2024-02-12T06:40:45.196Z,1.23
2024-02-12T06:42:46.925Z,1.33
2024-02-12T06:44:49.665Z,1.23
2024-02-12T06:46:53.962Z,1.70
2024-02-12T06:48:56.745Z,1.45
2024-02-12T06:51:01.513Z,1.63
2024-02-12T06:53:04.616Z,2.03
2024-02-12T06:55:11.197Z,1.45
2024-02-12T06:57:14.042Z,1.35
2024-02-12T06:59:16.818Z,1.52
2024-02-12T07:01:19.789Z,1.60
2024-02-12T07:03:23.974Z,1.48
2024-02-12T07:05:26.966Z,1.48
2024-02-12T07:07:29.880Z,2.00
2024-02-12T07:09:32.524Z,1.80
2024-02-12T07:11:35.332Z,1.70
2024-02-12T07:13:38.118Z,2.03
2024-02-12T07:15:40.893Z,1.70
2024-02-12T07:17:44.729Z,1.50
2024-02-12T07:19:48.410Z,1.45
2024-02-12T07:21:51.346Z,1.52
2024-02-12T07:23:54.052Z,1.52
2024-02-12T07:25:56.795Z,1.48
2024-02-12T07:27:59.501Z,1.80
2024-02-12T07:30:02.271Z,1.55
2024-02-12T07:32:06.548Z,1.60
2024-02-12T07:34:09.345Z,1.70
2024-02-12T07:36:13.541Z,1.70
2024-02-12T07:38:16.651Z,1.63
2024-02-12T07:40:19.720Z,1.52
2024-02-12T07:42:22.524Z,1.40
2024-02-12T07:44:25.283Z,1.42
2024-02-12T07:46:29.807Z,1.55
2024-02-12T07:48:32.568Z,1.45
2024-02-12T07:50:36.474Z,1.35
2024-02-12T07:52:40.566Z,1.30
2024-02-12T07:54:45.994Z,1.15
2024-02-12T07:56:48.952Z,0.98
2024-02-12T07:58:51.986Z,1.25
2024-02-12T08:00:54.878Z,1.15
2024-02-12T08:02:58.040Z,1.35
2024-02-12T08:05:01.373Z,1.30
2024-02-12T08:07:06.326Z,1.33
2024-02-12T08:09:12.127Z,1.17
2024-02-12T08:11:14.887Z,1.20
2024-02-12T08:13:16.747Z,1.00
2024-02-12T08:15:19.444Z,1.42
2024-02-12T08:17:28.248Z,1.45
2024-02-12T08:19:31.872Z,1.27
2024-02-12T08:21:35.178Z,1.50
2024-02-12T08:23:38.410Z,1.45
2024-02-12T08:25:42.696Z,1.50
2024-02-12T08:27:44.517Z,1.50
2024-02-12T08:29:47.379Z,1.00
2024-02-12T08:31:50.709Z,1.23
2024-02-12T08:33:55.271Z,1.23
2024-02-12T08:35:59.279Z,1.10
2024-02-12T08:38:02.106Z,1.10
2024-02-12T08:40:06.017Z,1.25
2024-02-12T08:42:10.316Z,1.08
2024-02-12T08:44:13.110Z,0.98
2024-02-12T08:46:15.842Z,1.20
2024-02-12T08:48:18.697Z,1.10
2024-02-12T08:50:21.537Z,1.00
2024-02-12T08:52:24.361Z,1.10
2024-02-12T08:54:28.695Z,1.20
2024-02-12T08:56:32.405Z,1.23
2024-02-12T08:58:37.439Z,1.30
2024-02-12T09:00:40.561Z,1.05
2024-02-12T09:02:42.814Z,1.25
2024-02-12T09:04:47.240Z,1.50
2024-02-12T09:06:49.997Z,1.00
2024-02-12T09:08:52.804Z,1.38
2024-02-12T09:10:56.769Z,1.17
2024-02-12T09:13:01.231Z,1.30
2024-02-12T09:15:07.290Z,1.15
2024-02-12T09:17:10.165Z,1.30
2024-02-12T09:19:13.028Z,0.90
2024-02-12T09:21:16.009Z,1.42
2024-02-12T09:23:21.922Z,1.17
2024-02-12T09:25:26.302Z,1.00
2024-02-12T09:27:30.802Z,1.45
2024-02-12T09:29:33.820Z,1.10
2024-02-12T09:31:37.989Z,0.98
2024-02-12T09:33:42.190Z,1.08
2024-02-12T09:35:45.850Z,1.50
2024-02-12T09:37:47.962Z,1.30
2024-02-12T09:39:50.702Z,1.20
2024-02-12T09:41:54.800Z,1.05
2024-02-12T09:43:58.730Z,1.10
2024-02-12T09:46:05.451Z,1.05
2024-02-12T09:48:11.703Z,1.20
2024-02-12T09:50:15.498Z,1.50
2024-02-12T09:52:17.960Z,1.08
2024-02-12T09:54:21.348Z,1.33
2024-02-12T09:56:26.878Z,1.25
2024-02-12T09:58:29.596Z,1.20
2024-02-12T10:00:32.509Z,1.08
2024-02-12T10:02:37.321Z,1.00
2024-02-12T10:04:41.718Z,1.38
2024-02-12T10:06:44.827Z,1.17
2024-02-12T10:08:48.430Z,1.30
2024-02-12T10:10:52.228Z,1.20
2024-02-12T10:12:55.934Z,1.38
2024-02-12T10:14:58.701Z,1.10
2024-02-12T10:17:02.232Z,1.05
2024-02-12T10:19:05.259Z,1.30
2024-02-12T10:21:09.718Z,1.20
2024-02-12T10:23:13.084Z,1.40
2024-02-12T10:25:16.771Z,1.35
2024-02-12T10:27:22.032Z,1.20
2024-02-12T10:29:24.811Z,1.08
2024-02-12T10:31:28.575Z,1.30
2024-02-12T10:33:35.396Z,1.40
2024-02-12T10:35:40.367Z,1.17
2024-02-12T10:37:46.434Z,1.10
2024-02-12T10:39:52.862Z,1.30
2024-02-12T10:41:58.660Z,1.20
2024-02-12T10:44:02.160Z,1.20
2024-02-12T10:46:05.627Z,1.08
2024-02-12T10:48:09.740Z,1.17
2024-02-12T10:50:14.558Z,1.20
2024-02-12T10:52:18.421Z,0.98
2024-02-12T10:54:23.896Z,1.25
2024-02-12T10:56:27.746Z,1.10
2024-02-12T10:58:30.658Z,1.05
2024-02-12T11:00:33.641Z,1.38
2024-02-12T11:02:44.784Z,1.27
2024-02-12T11:04:57.179Z,1.42
2024-02-12T11:07:10.444Z,1.10
2024-02-12T11:09:13.224Z,1.10
2024-02-12T11:11:19.621Z,1.20
2024-02-12T11:13:22.418Z,1.30
2024-02-12T11:15:28.002Z,1.15
2024-02-12T11:17:33.414Z,1.10
2024-02-12T11:19:36.235Z,1.15
2024-02-12T11:21:40.086Z,1.10
2024-02-12T11:23:43.031Z,1.30
2024-02-12T11:25:54.534Z,1.13
2024-02-12T11:28:01.008Z,1.00
2024-02-12T11:30:03.819Z,1.20
2024-02-12T11:32:07.025Z,1.40
2024-02-12T11:34:13.832Z,0.90
2024-02-12T11:36:17.675Z,0.90
2024-02-12T11:38:20.472Z,0.88
2024-02-12T11:40:23.423Z,0.93
2024-02-12T11:42:26.392Z,1.10
2024-02-12T11:44:30.825Z,1.15
2024-02-12T11:46:34.229Z,1.25
2024-02-12T11:48:37.182Z,1.10
2024-02-12T11:50:40.329Z,1.50
2024-02-12T11:52:42.123Z,1.10
2024-02-12T11:54:44.896Z,1.08
2024-02-12T11:56:47.895Z,1.50
2024-02-12T11:58:55.867Z,1.05
2024-02-12T12:01:00.806Z,1.35
2024-02-12T12:03:05.192Z,1.40
2024-02-12T12:05:11.507Z,0.95
2024-02-12T12:07:16.722Z,1.00
2024-02-12T12:09:21.542Z,1.60
2024-02-12T12:11:25.100Z,1.33
2024-02-12T12:13:27.813Z,1.27
2024-02-12T12:15:31.070Z,1.15
2024-02-12T12:17:37.691Z,1.30
2024-02-12T12:19:42.311Z,1.20
2024-02-12T12:21:45.510Z,1.30
2024-02-12T12:23:48.508Z,1.40
2024-02-12T12:25:53.771Z,1.40
2024-02-12T12:27:58.821Z,1.10
2024-02-12T12:30:15.261Z,1.30
2024-02-12T12:32:17.967Z,1.05
2024-02-12T12:34:22.779Z,1.02
2024-02-12T12:36:25.681Z,1.20
2024-02-12T12:38:28.407Z,1.00
2024-02-12T12:40:31.264Z,0.98
2024-02-12T12:42:34.175Z,0.80
2024-02-12T12:44:37.186Z,1.10
2024-02-12T12:46:40.440Z,0.90
2024-02-12T12:48:43.812Z,1.10
2024-02-12T12:50:58.835Z,1.17
2024-02-12T12:53:02.691Z,1.02
2024-02-12T12:55:06.245Z,0.90
2024-02-12T12:57:08.257Z,0.90
2024-02-12T12:59:12.948Z,1.00
2024-02-12T13:01:15.735Z,1.60
2024-02-12T13:03:18.849Z,0.90
2024-02-12T13:05:22.218Z,1.30
2024-02-12T13:07:26.681Z,1.13
2024-02-12T13:09:32.580Z,1.50
2024-02-12T13:11:36.484Z,1.30
2024-02-12T13:13:38.231Z,1.08
2024-02-12T13:15:42.288Z,1.10
2024-02-12T13:17:46.444Z,1.10
2024-02-12T13:19:49.269Z,1.15
2024-02-12T13:21:52.056Z,0.85
2024-02-12T13:23:56.713Z,1.02
2024-02-12T13:26:00.775Z,0.70
2024-02-12T13:28:04.642Z,0.90
2024-02-12T13:30:10.082Z,0.85
2024-02-12T13:32:12.843Z,1.00
2024-02-12T13:34:14.798Z,1.00
2024-02-12T13:36:17.744Z,0.80
2024-02-12T13:38:21.990Z,0.88
2024-02-12T13:40:28.602Z,0.80
2024-02-12T13:42:33.208Z,0.60
2024-02-12T13:44:38.175Z,0.63
2024-02-12T13:46:42.350Z,0.73
2024-02-12T13:48:47.090Z,0.70
2024-02-12T13:50:52.282Z,0.80
2024-02-12T13:52:56.691Z,0.80
2024-02-12T13:55:01.063Z,0.70
2024-02-12T13:57:05.243Z,0.65
2024-02-12T13:59:08.132Z,0.50
2024-02-12T14:01:23.733Z,0.60
2024-02-12T14:03:34.782Z,0.43
2024-02-12T14:05:38.156Z,0.65
2024-02-12T14:07:40.925Z,0.80
2024-02-12T14:09:43.584Z,0.57
2024-02-12T14:11:46.361Z,0.65
2024-02-12T14:13:52.599Z,0.80
2024-02-12T14:16:06.000Z,0.60
2024-02-12T14:18:13.331Z,0.55
2024-02-12T14:20:18.742Z,1.13
2024-02-12T14:22:21.794Z,0.52
2024-02-12T14:24:24.505Z,0.60
2024-02-12T14:26:28.143Z,0.50
2024-02-12T14:28:31.009Z,0.47
2024-02-12T14:30:35.929Z,0.60
2024-02-12T14:32:42.828Z,0.60
2024-02-12T14:34:48.190Z,0.60
2024-02-12T14:36:54.054Z,0.60
2024-02-12T14:38:58.055Z,0.70
2024-02-12T14:41:03.782Z,0.70
2024-02-12T14:43:06.694Z,0.50
2024-02-12T14:45:10.085Z,0.70
2024-02-12T14:47:13.336Z,0.85
2024-02-12T14:49:21.018Z,0.50
2024-02-12T14:51:37.412Z,0.80
2024-02-12T14:53:40.101Z,0.63
2024-02-12T14:55:42.144Z,0.60
2024-02-12T14:57:45.798Z,0.60
2024-02-12T14:59:49.047Z,0.70
2024-02-12T15:01:51.756Z,0.65
2024-02-12T15:03:56.217Z,0.55
2024-02-12T15:05:58.358Z,0.70
2024-02-12T15:08:01.421Z,0.70
2024-02-12T15:10:05.944Z,0.70
2024-02-12T15:12:08.915Z,0.70
2024-02-12T15:14:11.726Z,0.68
2024-02-12T15:16:14.970Z,0.50
2024-02-12T15:18:18.216Z,0.52
2024-02-12T15:20:23.927Z,0.55
2024-02-12T15:22:26.774Z,0.57
2024-02-12T15:24:28.531Z,0.60
2024-02-12T15:26:31.304Z,0.50
2024-02-12T15:28:34.098Z,0.60
2024-02-12T15:30:36.362Z,0.43
2024-02-12T15:32:39.207Z,0.55
2024-02-12T15:34:43.518Z,0.75
2024-02-12T15:36:47.612Z,1.10
2024-02-12T15:38:50.427Z,0.60
2024-02-12T15:40:52.374Z,0.70
2024-02-12T15:42:56.721Z,0.60
2024-02-12T15:45:00.490Z,0.50
2024-02-12T15:47:02.413Z,0.60
2024-02-12T15:49:06.579Z,0.70
2024-02-12T15:51:13.881Z,0.80
2024-02-12T15:53:20.584Z,1.08
2024-02-12T15:55:25.214Z,0.60
2024-02-12T15:57:30.118Z,0.68
2024-02-12T15:59:32.990Z,0.80
2024-02-12T16:01:37.826Z,0.57
2024-02-12T16:03:41.171Z,0.80
2024-02-12T16:06:12.248Z,0.60
2024-02-12T16:08:15.404Z,0.70
2024-02-12T16:10:19.566Z,0.95
2024-02-12T16:12:23.949Z,1.95
2024-02-12T16:14:26.777Z,0.80
2024-02-12T16:16:32.304Z,0.75
2024-02-12T16:18:36.546Z,0.80
2024-02-12T16:20:39.809Z,0.50
2024-02-12T16:22:42.481Z,0.65
2024-02-12T16:24:45.315Z,0.90
2024-02-12T16:26:48.502Z,1.00
2024-02-12T16:28:51.362Z,0.80
2024-02-12T16:30:55.114Z,0.73
2024-02-12T16:32:58.432Z,0.80
2024-02-12T16:35:01.435Z,0.70
2024-02-12T16:37:05.242Z,0.90
2024-02-12T16:39:08.142Z,0.73
2024-02-12T16:41:10.858Z,0.50
2024-02-12T16:43:15.444Z,0.68
2024-02-12T16:45:20.070Z,1.08
2024-02-12T16:47:23.097Z,0.70
2024-02-12T16:49:26.124Z,1.13
2024-02-12T16:51:29.073Z,0.85
2024-02-12T16:53:30.801Z,0.70
2024-02-12T16:55:33.811Z,0.90
2024-02-12T16:57:38.133Z,0.70
2024-02-12T16:59:45.111Z,0.90
2024-02-12T17:01:47.909Z,1.00
2024-02-12T17:03:50.785Z,0.68
2024-02-12T17:05:54.002Z,0.90
2024-02-12T17:08:06.755Z,0.95
2024-02-12T17:10:13.604Z,0.80
2024-02-12T17:12:16.389Z,0.80
2024-02-12T17:14:19.177Z,1.35
2024-02-12T17:16:30.257Z,1.15
2024-02-12T17:18:41.514Z,1.50
2024-02-12T17:20:44.397Z,1.35
2024-02-12T17:22:48.149Z,1.00
2024-02-12T17:24:51.649Z,0.80
2024-02-12T17:26:55.221Z,1.05
2024-02-12T17:28:58.324Z,1.00
2024-02-12T17:31:00.929Z,1.23
2024-02-12T17:33:08.471Z,1.25
2024-02-12T17:35:13.290Z,0.90
2024-02-12T17:37:16.434Z,0.98
2024-02-12T17:39:21.210Z,1.20
2024-02-12T17:41:24.014Z,0.80
2024-02-12T17:43:26.839Z,0.80
2024-02-12T17:45:29.917Z,1.10
2024-02-12T17:47:32.896Z,1.17
2024-02-12T17:49:37.020Z,1.42
2024-02-12T17:51:39.737Z,1.33
2024-02-12T17:53:42.589Z,1.02
2024-02-12T17:55:45.379Z,1.10
2024-02-12T17:57:48.408Z,0.93
2024-02-12T17:59:52.074Z,0.95
2024-02-12T18:01:54.962Z,1.10
2024-02-12T18:03:59.867Z,1.20
2024-02-12T18:06:08.233Z,2.38
2024-02-12T18:08:11.424Z,1.30
2024-02-12T18:10:14.980Z,1.15
2024-02-12T18:12:22.194Z,1.23
2024-02-12T18:14:25.992Z,1.63
2024-02-12T18:16:29.292Z,1.50
2024-02-12T18:18:32.653Z,1.42
2024-02-12T18:20:35.638Z,1.40
2024-02-12T18:22:40.205Z,1.25
2024-02-12T18:24:43.313Z,1.25
2024-02-12T18:26:46.134Z,1.40
2024-02-12T18:28:48.902Z,1.55
2024-02-12T18:30:51.812Z,1.50
2024-02-12T18:32:54.627Z,1.27
2024-02-12T18:34:57.531Z,1.20
2024-02-12T18:37:01.807Z,1.27
2024-02-12T18:39:06.927Z,1.65
2024-02-12T18:41:11.716Z,1.58
2024-02-12T18:43:15.688Z,1.52
2024-02-12T18:45:19.071Z,1.25
2024-02-12T18:47:22.095Z,1.40
2024-02-12T18:49:24.986Z,1.20
2024-02-12T18:51:27.899Z,1.38
2024-02-12T18:53:30.675Z,1.23
2024-02-12T18:55:35.598Z,1.30
2024-02-12T18:57:41.521Z,1.02
2024-02-12T18:59:44.497Z,1.17
2024-02-12T19:01:52.418Z,1.27
2024-02-12T19:03:55.766Z,1.33
2024-02-12T19:05:58.840Z,1.13
2024-02-12T19:08:01.811Z,1.30
2024-02-12T19:10:07.185Z,1.40
2024-02-12T19:12:11.985Z,1.65
2024-02-12T19:14:15.068Z,1.88
2024-02-12T19:16:16.887Z,1.95
2024-02-12T19:18:19.763Z,2.00
2024-02-12T19:20:21.739Z,1.48
2024-02-12T19:22:24.569Z,1.85
2024-02-12T19:24:27.388Z,1.48
2024-02-12T19:26:30.468Z,1.42
2024-02-12T19:28:35.724Z,1.35
2024-02-12T19:30:37.647Z,1.30
2024-02-12T19:32:40.688Z,1.60
2024-02-12T19:34:44.071Z,1.48
2024-02-12T19:36:48.409Z,1.25
2024-02-12T19:38:51.524Z,1.83
2024-02-12T19:40:54.328Z,1.95
2024-02-12T19:42:56.311Z,1.50
2024-02-12T19:45:01.667Z,1.77
2024-02-12T19:47:06.629Z,1.55
2024-02-12T19:49:09.345Z,2.03
2024-02-12T19:51:12.174Z,1.55
2024-02-12T19:53:14.867Z,1.40
2024-02-12T19:55:18.163Z,1.50
2024-02-12T19:57:21.025Z,1.48
2024-02-12T19:59:23.798Z,1.20
2024-02-12T20:01:27.894Z,1.55
2024-02-12T20:03:30.719Z,1.70
2024-02-12T20:05:33.735Z,1.90
2024-02-12T20:07:39.063Z,1.38
2024-02-12T20:09:42.685Z,1.58
2024-02-12T20:11:45.557Z,1.40
2024-02-12T20:13:48.757Z,1.38
2024-02-12T20:15:52.383Z,1.45
2024-02-12T20:17:57.917Z,1.35
2024-02-12T20:20:00.361Z,1.48
2024-02-12T20:22:03.198Z,1.50
2024-02-12T20:24:07.026Z,1.58
2024-02-12T20:26:09.919Z,1.80
2024-02-12T20:28:13.806Z,1.45
2024-02-12T20:30:19.189Z,1.38
2024-02-12T20:32:22.774Z,2.17
2024-02-12T20:34:30.698Z,1.30
2024-02-12T20:36:35.489Z,1.58
2024-02-12T20:38:38.702Z,1.30
2024-02-12T20:40:41.471Z,1.80
2024-02-12T20:42:43.476Z,1.60
2024-02-12T20:44:46.302Z,1.60
2024-02-12T20:46:49.240Z,1.50
2024-02-12T20:48:52.079Z,1.60
2024-02-12T20:50:55.355Z,1.92
2024-02-12T20:52:58.291Z,1.45
2024-02-12T20:55:01.587Z,1.50
2024-02-12T20:57:04.058Z,1.42
2024-02-12T20:59:06.897Z,1.45
2024-02-12T21:01:10.213Z,1.48
2024-02-12T21:03:13.001Z,1.60
2024-02-12T21:05:15.917Z,1.30
2024-02-12T21:07:19.177Z,1.40
2024-02-12T21:09:21.882Z,1.42
2024-02-12T21:11:24.765Z,1.58
2024-02-12T21:13:27.570Z,1.75
2024-02-12T21:15:30.932Z,1.20
2024-02-12T21:17:33.776Z,1.50
2024-02-12T21:19:36.837Z,1.80
2024-02-12T21:21:39.591Z,1.75
2024-02-12T21:23:43.840Z,1.30
2024-02-12T21:25:47.101Z,1.52
2024-02-12T21:27:50.104Z,1.30
2024-02-12T21:29:52.912Z,1.40
2024-02-12T21:31:58.738Z,1.17
2024-02-12T21:34:07.062Z,1.50
2024-02-12T21:36:11.718Z,1.30
2024-02-12T21:38:14.531Z,2.60
2024-02-12T21:40:17.822Z,1.92
2024-02-12T21:42:27.764Z,1.42
2024-02-12T21:44:30.813Z,2.13
2024-02-12T21:46:34.139Z,1.50
2024-02-12T21:48:36.956Z,1.33
2024-02-12T21:50:39.812Z,1.27
2024-02-12T21:52:42.584Z,1.40
2024-02-12T21:54:45.642Z,1.60
2024-02-12T21:56:50.959Z,1.40
2024-02-12T21:58:54.054Z,1.20
2024-02-12T22:00:56.760Z,1.25
2024-02-12T22:02:59.637Z,1.33
2024-02-12T22:05:05.117Z,1.20
2024-02-12T22:07:08.302Z,1.33
2024-02-12T22:09:10.998Z,1.17
2024-02-12T22:11:15.209Z,1.10
2024-02-12T22:13:19.569Z,1.30
2024-02-12T22:15:24.462Z,1.20
2024-02-12T22:17:27.508Z,1.08
2024-02-12T22:19:30.886Z,1.67
2024-02-12T22:21:34.236Z,1.40
2024-02-12T22:23:36.122Z,1.10
2024-02-12T22:25:39.321Z,1.10
2024-02-12T22:27:41.972Z,1.20
2024-02-12T22:29:46.601Z,1.23
2024-02-12T22:31:49.479Z,1.33
2024-02-12T22:33:52.241Z,1.27
2024-02-12T22:35:55.472Z,1.42
2024-02-12T22:37:58.644Z,1.40
2024-02-12T22:40:05.568Z,1.20
2024-02-12T22:42:10.262Z,1.15
2024-02-12T22:44:13.049Z,1.10
2024-02-12T22:46:17.176Z,1.33
2024-02-12T22:48:20.089Z,1.08
2024-02-12T22:50:22.094Z,1.10
2024-02-12T22:52:25.970Z,1.30
2024-02-12T22:54:28.696Z,1.02
2024-02-12T22:56:31.459Z,1.35
2024-02-12T22:58:34.249Z,1.10
2024-02-12T23:00:42.330Z,1.63
2024-02-12T23:02:48.062Z,1.40
2024-02-12T23:04:52.315Z,1.30
2024-02-12T23:06:55.896Z,1.02
2024-02-12T23:08:57.796Z,1.42
2024-02-12T23:11:00.712Z,1.40
2024-02-12T23:13:03.811Z,1.95
2024-02-12T23:15:07.352Z,1.42
2024-02-12T23:17:10.160Z,1.75
2024-02-12T23:19:14.686Z,1.50
2024-02-12T23:21:18.990Z,2.90
2024-02-12T23:23:21.869Z,1.38
2024-02-12T23:25:24.964Z,1.50
2024-02-12T23:27:27.823Z,1.55
2024-02-12T23:29:32.007Z,1.23
2024-02-12T23:31:36.364Z,1.20
2024-02-12T23:33:39.123Z,1.50
2024-02-12T23:35:43.348Z,1.13
2024-02-12T23:37:46.269Z,1.60
2024-02-12T23:39:48.183Z,1.20
2024-02-12T23:41:54.654Z,1.45
2024-02-12T23:43:57.446Z,1.45
2024-02-12T23:46:01.022Z,1.25
2024-02-12T23:48:04.326Z,1.00
2024-02-12T23:50:09.721Z,1.67
2024-02-12T23:52:14.112Z,1.17
2024-02-12T23:54:18.051Z,1.20
2024-02-12T23:56:24.253Z,1.88
2024-02-12T23:58:27.204Z,1.60
